sensor_id;sensor_type;location;lat;lon;timestamp;P1;durP1;ratioP1;P2;durP2;ratioP2
67930;SDS011;63902;52.000;5.954;2022-11-04T00:00:36;1.92;;;0.90;;
67930;SDS011;63902;52.000;5.954;2022-11-04T00:01:37;2.00;;;1.20;;
67930;SDS011;63902;52.000;5.954;2022-11-04T00:02:39;3.47;;;1.20;;
67930;SDS011;63902;52.000;5.954;2022-11-04T00:03:39;1.95;;;1.30;;
67930;SDS011;63902;52.000;5.954;2022-11-04T00:04:41;2.05;;;1.05;;
67930;SDS011;63902;52.000;5.954;2022-11-04T00:05:42;2.53;;;1.30;;
67930;SDS011;63902;52.000;5.954;2022-11-04T00:06:42;1.50;;;1.10;;
67930;SDS011;63902;52.000;5.954;2022-11-04T00:07:43;4.55;;;1.45;;
67930;SDS011;63902;52.000;5.954;2022-11-04T00:08:46;1.90;;;1.40;;
67930;SDS011;63902;52.000;5.954;2022-11-04T00:09:47;2.15;;;1.30;;
67930;SDS011;63902;52.000;5.954;2022-11-04T00:10:52;2.50;;;1.30;;
67930;SDS011;63902;52.000;5.954;2022-11-04T00:11:53;2.90;;;1.50;;
67930;SDS011;63902;52.000;5.954;2022-11-04T00:12:54;2.25;;;1.40;;
67930;SDS011;63902;52.000;5.954;2022-11-04T00:13:54;2.55;;;1.60;;
67930;SDS011;63902;52.000;5.954;2022-11-04T00:14:56;1.75;;;1.35;;
67930;SDS011;63902;52.000;5.954;2022-11-04T00:15:59;3.75;;;1.45;;
67930;SDS011;63902;52.000;5.954;2022-11-04T00:17:00;2.45;;;1.48;;
67930;SDS011;63902;52.000;5.954;2022-11-04T00:18:01;2.80;;;1.70;;
67930;SDS011;63902;52.000;5.954;2022-11-04T00:19:01;2.22;;;1.63;;
67930;SDS011;63902;52.000;5.954;2022-11-04T00:20:04;2.20;;;1.50;;
67930;SDS011;63902;52.000;5.954;2022-11-04T00:21:05;3.80;;;2.05;;
67930;SDS011;63902;52.000;5.954;2022-11-04T00:22:05;2.67;;;1.70;;
67930;SDS011;63902;52.000;5.954;2022-11-04T00:23:06;2.72;;;1.63;;
67930;SDS011;63902;52.000;5.954;2022-11-04T00:24:07;5.00;;;1.85;;
67930;SDS011;63902;52.000;5.954;2022-11-04T00:25:10;3.30;;;1.73;;
67930;SDS011;63902;52.000;5.954;2022-11-04T00:26:11;2.42;;;1.60;;
67930;SDS011;63902;52.000;5.954;2022-11-04T00:27:12;2.28;;;1.77;;
67930;SDS011;63902;52.000;5.954;2022-11-04T00:28:14;2.05;;;1.60;;
67930;SDS011;63902;52.000;5.954;2022-11-04T00:29:15;2.55;;;1.70;;
67930;SDS011;63902;52.000;5.954;2022-11-04T00:30:16;2.30;;;1.77;;
67930;SDS011;63902;52.000;5.954;2022-11-04T00:31:16;2.20;;;1.42;;
67930;SDS011;63902;52.000;5.954;2022-11-04T00:32:17;2.38;;;1.52;;
67930;SDS011;63902;52.000;5.954;2022-11-04T00:33:17;2.75;;;1.83;;
67930;SDS011;63902;52.000;5.954;2022-11-04T00:34:17;2.63;;;2.00;;
67930;SDS011;63902;52.000;5.954;2022-11-04T00:35:19;2.42;;;2.08;;
67930;SDS011;63902;52.000;5.954;2022-11-04T00:36:21;2.88;;;2.10;;
67930;SDS011;63902;52.000;5.954;2022-11-04T00:37:23;2.80;;;2.33;;
67930;SDS011;63902;52.000;5.954;2022-11-04T00:38:23;3.33;;;2.17;;
67930;SDS011;63902;52.000;5.954;2022-11-04T00:39:24;3.63;;;2.20;;
67930;SDS011;63902;52.000;5.954;2022-11-04T00:40:24;2.58;;;2.20;;
67930;SDS011;63902;52.000;5.954;2022-11-04T00:41:25;2.63;;;2.30;;
67930;SDS011;63902;52.000;5.954;2022-11-04T00:42:25;3.45;;;2.20;;
67930;SDS011;63902;52.000;5.954;2022-11-04T00:43:25;3.42;;;2.58;;
67930;SDS011;63902;52.000;5.954;2022-11-04T00:44:26;3.15;;;2.80;;
67930;SDS011;63902;52.000;5.954;2022-11-04T00:45:26;3.08;;;2.30;;
67930;SDS011;63902;52.000;5.954;2022-11-04T00:46:27;3.67;;;3.17;;
67930;SDS011;63902;52.000;5.954;2022-11-04T00:47:29;3.20;;;2.83;;
67930;SDS011;63902;52.000;5.954;2022-11-04T00:48:30;4.20;;;3.20;;
67930;SDS011;63902;52.000;5.954;2022-11-04T00:49:30;3.10;;;2.53;;
67930;SDS011;63902;52.000;5.954;2022-11-04T00:50:32;3.03;;;2.70;;
67930;SDS011;63902;52.000;5.954;2022-11-04T00:51:32;5.20;;;3.00;;
67930;SDS011;63902;52.000;5.954;2022-11-04T00:52:33;3.33;;;2.90;;
67930;SDS011;63902;52.000;5.954;2022-11-04T00:53:33;3.60;;;2.97;;
67930;SDS011;63902;52.000;5.954;2022-11-04T00:54:34;3.17;;;2.47;;
67930;SDS011;63902;52.000;5.954;2022-11-04T00:55:34;6.13;;;3.00;;
67930;SDS011;63902;52.000;5.954;2022-11-04T00:56:36;3.08;;;2.33;;
67930;SDS011;63902;52.000;5.954;2022-11-04T00:57:36;6.35;;;2.60;;
67930;SDS011;63902;52.000;5.954;2022-11-04T00:58:37;2.45;;;2.08;;
67930;SDS011;63902;52.000;5.954;2022-11-04T00:59:37;2.10;;;1.80;;
67930;SDS011;63902;52.000;5.954;2022-11-04T01:00:38;2.00;;;1.77;;
67930;SDS011;63902;52.000;5.954;2022-11-04T01:01:38;2.38;;;2.10;;
67930;SDS011;63902;52.000;5.954;2022-11-04T01:02:39;2.45;;;2.10;;
67930;SDS011;63902;52.000;5.954;2022-11-04T01:03:39;2.45;;;1.50;;
67930;SDS011;63902;52.000;5.954;2022-11-04T01:04:40;2.30;;;1.60;;
67930;SDS011;63902;52.000;5.954;2022-11-04T01:05:42;2.75;;;1.70;;
67930;SDS011;63902;52.000;5.954;2022-11-04T01:06:42;2.90;;;1.90;;
67930;SDS011;63902;52.000;5.954;2022-11-04T01:07:43;2.58;;;1.52;;
67930;SDS011;63902;52.000;5.954;2022-11-04T01:08:43;2.17;;;1.40;;
67930;SDS011;63902;52.000;5.954;2022-11-04T01:09:44;1.70;;;1.40;;
67930;SDS011;63902;52.000;5.954;2022-11-04T01:10:44;1.60;;;1.15;;
67930;SDS011;63902;52.000;5.954;2022-11-04T01:11:45;1.25;;;1.08;;
67930;SDS011;63902;52.000;5.954;2022-11-04T01:12:45;1.67;;;0.93;;
67930;SDS011;63902;52.000;5.954;2022-11-04T01:13:48;2.17;;;1.08;;
67930;SDS011;63902;52.000;5.954;2022-11-04T01:14:49;1.48;;;0.90;;
67930;SDS011;63902;52.000;5.954;2022-11-04T01:15:50;1.10;;;0.80;;
67930;SDS011;63902;52.000;5.954;2022-11-04T01:16:50;1.08;;;0.90;;
67930;SDS011;63902;52.000;5.954;2022-11-04T01:17:51;1.60;;;0.90;;
67930;SDS011;63902;52.000;5.954;2022-11-04T01:18:51;1.33;;;1.00;;
67930;SDS011;63902;52.000;5.954;2022-11-04T01:19:52;1.00;;;0.80;;
67930;SDS011;63902;52.000;5.954;2022-11-04T01:20:53;1.33;;;0.88;;
67930;SDS011;63902;52.000;5.954;2022-11-04T01:21:54;1.33;;;0.90;;
67930;SDS011;63902;52.000;5.954;2022-11-04T01:22:55;2.03;;;0.82;;
67930;SDS011;63902;52.000;5.954;2022-11-04T01:23:55;1.00;;;0.80;;
67930;SDS011;63902;52.000;5.954;2022-11-04T01:24:56;0.80;;;0.75;;
67930;SDS011;63902;52.000;5.954;2022-11-04T01:25:56;1.00;;;0.70;;
67930;SDS011;63902;52.000;5.954;2022-11-04T01:26:57;1.08;;;0.80;;
67930;SDS011;63902;52.000;5.954;2022-11-04T01:27:57;0.70;;;0.63;;
67930;SDS011;63902;52.000;5.954;2022-11-04T01:28:58;1.17;;;0.80;;
67930;SDS011;63902;52.000;5.954;2022-11-04T01:29:58;1.10;;;0.80;;
67930;SDS011;63902;52.000;5.954;2022-11-04T01:30:59;1.20;;;0.90;;
67930;SDS011;63902;52.000;5.954;2022-11-04T01:32:04;2.10;;;0.70;;
67930;SDS011;63902;52.000;5.954;2022-11-04T01:33:04;0.68;;;0.52;;
67930;SDS011;63902;52.000;5.954;2022-11-04T01:34:05;2.03;;;0.75;;
67930;SDS011;63902;52.000;5.954;2022-11-04T01:35:06;1.02;;;0.80;;
67930;SDS011;63902;52.000;5.954;2022-11-04T01:36:09;0.60;;;0.60;;
67930;SDS011;63902;52.000;5.954;2022-11-04T01:37:10;1.63;;;0.60;;
67930;SDS011;63902;52.000;5.954;2022-11-04T01:38:10;1.13;;;0.63;;
67930;SDS011;63902;52.000;5.954;2022-11-04T01:39:11;0.70;;;0.60;;
67930;SDS011;63902;52.000;5.954;2022-11-04T01:40:11;0.85;;;0.70;;
67930;SDS011;63902;52.000;5.954;2022-11-04T01:41:15;0.60;;;0.50;;
67930;SDS011;63902;52.000;5.954;2022-11-04T01:42:19;1.33;;;0.60;;
67930;SDS011;63902;52.000;5.954;2022-11-04T01:43:21;0.60;;;0.50;;
67930;SDS011;63902;52.000;5.954;2022-11-04T01:45:52;6.57;;;0.80;;
67930;SDS011;63902;52.000;5.954;2022-11-04T01:46:55;0.60;;;0.60;;
67930;SDS011;63902;52.000;5.954;2022-11-04T01:47:58;0.90;;;0.60;;
67930;SDS011;63902;52.000;5.954;2022-11-04T01:49:01;1.15;;;0.60;;
67930;SDS011;63902;52.000;5.954;2022-11-04T01:50:08;1.25;;;0.60;;
67930;SDS011;63902;52.000;5.954;2022-11-04T01:51:14;1.08;;;0.80;;
67930;SDS011;63902;52.000;5.954;2022-11-04T01:52:16;1.25;;;0.70;;
67930;SDS011;63902;52.000;5.954;2022-11-04T01:53:22;0.60;;;0.60;;
67930;SDS011;63902;52.000;5.954;2022-11-04T01:54:25;1.58;;;0.82;;
67930;SDS011;63902;52.000;5.954;2022-11-04T01:55:27;0.80;;;0.70;;
67930;SDS011;63902;52.000;5.954;2022-11-04T01:56:32;0.70;;;0.60;;
67930;SDS011;63902;52.000;5.954;2022-11-04T01:57:33;1.15;;;0.90;;
67930;SDS011;63902;52.000;5.954;2022-11-04T01:58:40;2.08;;;0.90;;
67930;SDS011;63902;52.000;5.954;2022-11-04T01:59:43;1.67;;;0.80;;
67930;SDS011;63902;52.000;5.954;2022-11-04T02:00:45;1.23;;;0.90;;
67930;SDS011;63902;52.000;5.954;2022-11-04T02:01:45;0.73;;;0.70;;
67930;SDS011;63902;52.000;5.954;2022-11-04T02:02:50;1.33;;;1.02;;
67930;SDS011;63902;52.000;5.954;2022-11-04T02:03:57;1.27;;;0.90;;
67930;SDS011;63902;52.000;5.954;2022-11-04T02:04:58;1.50;;;1.00;;
67930;SDS011;63902;52.000;5.954;2022-11-04T02:05:59;1.73;;;1.15;;
67930;SDS011;63902;52.000;5.954;2022-11-04T02:07:02;1.23;;;1.00;;
67930;SDS011;63902;52.000;5.954;2022-11-04T02:08:04;2.15;;;1.20;;
67930;SDS011;63902;52.000;5.954;2022-11-04T02:09:07;2.40;;;1.10;;
67930;SDS011;63902;52.000;5.954;2022-11-04T02:10:07;1.27;;;1.00;;
67930;SDS011;63902;52.000;5.954;2022-11-04T02:11:08;2.05;;;1.42;;
67930;SDS011;63902;52.000;5.954;2022-11-04T02:12:09;2.03;;;1.67;;
67930;SDS011;63902;52.000;5.954;2022-11-04T02:13:09;2.05;;;1.52;;
67930;SDS011;63902;52.000;5.954;2022-11-04T02:14:10;2.17;;;1.23;;
67930;SDS011;63902;52.000;5.954;2022-11-04T02:15:10;2.30;;;2.00;;
67930;SDS011;63902;52.000;5.954;2022-11-04T02:16:12;2.05;;;1.73;;
67930;SDS011;63902;52.000;5.954;2022-11-04T02:17:27;3.17;;;2.30;;
67930;SDS011;63902;52.000;5.954;2022-11-04T02:18:38;3.00;;;2.10;;
67930;SDS011;63902;52.000;5.954;2022-11-04T02:20:03;2.95;;;2.30;;
67930;SDS011;63902;52.000;5.954;2022-11-04T02:23:01;3.13;;;2.58;;
67930;SDS011;63902;52.000;5.954;2022-11-04T02:24:26;4.15;;;2.95;;
67930;SDS011;63902;52.000;5.954;2022-11-04T02:27:27;4.30;;;2.65;;
67930;SDS011;63902;52.000;5.954;2022-11-04T02:28:47;4.05;;;3.00;;
67930;SDS011;63902;52.000;5.954;2022-11-04T02:30:05;3.42;;;3.08;;
67930;SDS011;63902;52.000;5.954;2022-11-04T02:31:08;4.97;;;3.80;;
67930;SDS011;63902;52.000;5.954;2022-11-04T02:32:16;3.90;;;3.50;;
67930;SDS011;63902;52.000;5.954;2022-11-04T02:33:23;4.63;;;3.70;;
67930;SDS011;63902;52.000;5.954;2022-11-04T02:34:30;5.78;;;4.07;;
67930;SDS011;63902;52.000;5.954;2022-11-04T02:35:39;4.05;;;3.70;;
67930;SDS011;63902;52.000;5.954;2022-11-04T02:36:47;4.63;;;4.15;;
67930;SDS011;63902;52.000;5.954;2022-11-04T02:37:55;4.00;;;3.60;;
67930;SDS011;63902;52.000;5.954;2022-11-04T02:39:03;5.75;;;3.92;;
67930;SDS011;63902;52.000;5.954;2022-11-04T02:40:13;5.95;;;4.43;;
67930;SDS011;63902;52.000;5.954;2022-11-04T02:41:23;5.97;;;4.00;;
67930;SDS011;63902;52.000;5.954;2022-11-04T02:42:36;6.75;;;3.92;;
67930;SDS011;63902;52.000;5.954;2022-11-04T02:43:47;5.57;;;4.50;;
67930;SDS011;63902;52.000;5.954;2022-11-04T02:45:05;5.28;;;4.00;;
67930;SDS011;63902;52.000;5.954;2022-11-04T02:46:14;5.57;;;4.45;;
67930;SDS011;63902;52.000;5.954;2022-11-04T02:47:18;4.90;;;4.40;;
67930;SDS011;63902;52.000;5.954;2022-11-04T02:48:26;4.95;;;4.55;;
67930;SDS011;63902;52.000;5.954;2022-11-04T02:49:37;4.35;;;3.95;;
67930;SDS011;63902;52.000;5.954;2022-11-04T02:50:41;5.68;;;4.63;;
67930;SDS011;63902;52.000;5.954;2022-11-04T02:51:45;5.65;;;4.93;;
67930;SDS011;63902;52.000;5.954;2022-11-04T02:52:52;5.75;;;4.65;;
67930;SDS011;63902;52.000;5.954;2022-11-04T02:53:59;6.53;;;4.53;;
67930;SDS011;63902;52.000;5.954;2022-11-04T02:55:04;5.00;;;4.50;;
67930;SDS011;63902;52.000;5.954;2022-11-04T02:56:09;6.10;;;4.38;;
67930;SDS011;63902;52.000;5.954;2022-11-04T02:57:14;5.35;;;4.75;;
67930;SDS011;63902;52.000;5.954;2022-11-04T02:58:20;5.32;;;4.80;;
67930;SDS011;63902;52.000;5.954;2022-11-04T02:59:27;6.70;;;5.43;;
67930;SDS011;63902;52.000;5.954;2022-11-04T03:00:32;4.60;;;4.20;;
67930;SDS011;63902;52.000;5.954;2022-11-04T03:01:33;5.45;;;4.95;;
67930;SDS011;63902;52.000;5.954;2022-11-04T03:02:38;6.18;;;5.15;;
67930;SDS011;63902;52.000;5.954;2022-11-04T03:03:43;5.75;;;5.10;;
67930;SDS011;63902;52.000;5.954;2022-11-04T03:04:49;5.85;;;4.80;;
67930;SDS011;63902;52.000;5.954;2022-11-04T03:05:52;5.38;;;4.82;;
67930;SDS011;63902;52.000;5.954;2022-11-04T03:06:54;5.75;;;5.05;;
67930;SDS011;63902;52.000;5.954;2022-11-04T03:07:59;5.80;;;5.20;;
67930;SDS011;63902;52.000;5.954;2022-11-04T03:09:04;5.57;;;4.88;;
67930;SDS011;63902;52.000;5.954;2022-11-04T03:10:08;5.82;;;5.20;;
67930;SDS011;63902;52.000;5.954;2022-11-04T03:11:14;6.47;;;5.32;;
67930;SDS011;63902;52.000;5.954;2022-11-04T03:12:16;6.05;;;4.47;;
67930;SDS011;63902;52.000;5.954;2022-11-04T03:13:23;7.70;;;4.40;;
67930;SDS011;63902;52.000;5.954;2022-11-04T03:14:28;5.53;;;4.72;;
67930;SDS011;63902;52.000;5.954;2022-11-04T03:15:36;5.82;;;5.13;;
67930;SDS011;63902;52.000;5.954;2022-11-04T03:16:39;10.57;;;5.07;;
67930;SDS011;63902;52.000;5.954;2022-11-04T03:17:45;5.70;;;5.20;;
67930;SDS011;63902;52.000;5.954;2022-11-04T03:18:53;5.20;;;4.68;;
67930;SDS011;63902;52.000;5.954;2022-11-04T03:20:00;5.38;;;4.70;;
67930;SDS011;63902;52.000;5.954;2022-11-04T03:21:05;7.18;;;4.80;;
67930;SDS011;63902;52.000;5.954;2022-11-04T03:22:09;5.30;;;4.80;;
67930;SDS011;63902;52.000;5.954;2022-11-04T03:23:11;6.90;;;5.38;;
67930;SDS011;63902;52.000;5.954;2022-11-04T03:24:12;5.60;;;5.10;;
67930;SDS011;63902;52.000;5.954;2022-11-04T03:25:13;6.15;;;5.28;;
67930;SDS011;63902;52.000;5.954;2022-11-04T03:26:17;5.53;;;5.03;;
67930;SDS011;63902;52.000;5.954;2022-11-04T03:27:23;5.93;;;5.22;;
67930;SDS011;63902;52.000;5.954;2022-11-04T03:28:30;8.20;;;5.95;;
67930;SDS011;63902;52.000;5.954;2022-11-04T03:29:41;6.63;;;5.60;;
67930;SDS011;63902;52.000;5.954;2022-11-04T03:30:55;5.38;;;4.88;;
67930;SDS011;63902;52.000;5.954;2022-11-04T03:32:05;5.03;;;4.55;;
67930;SDS011;63902;52.000;5.954;2022-11-04T03:33:11;6.18;;;5.00;;
67930;SDS011;63902;52.000;5.954;2022-11-04T03:34:17;5.70;;;5.07;;
67930;SDS011;63902;52.000;5.954;2022-11-04T03:35:18;5.70;;;4.95;;
67930;SDS011;63902;52.000;5.954;2022-11-04T03:36:19;6.68;;;5.50;;
67930;SDS011;63902;52.000;5.954;2022-11-04T03:37:21;5.40;;;4.82;;
67930;SDS011;63902;52.000;5.954;2022-11-04T03:38:21;5.05;;;4.55;;
67930;SDS011;63902;52.000;5.954;2022-11-04T03:39:22;6.18;;;5.30;;
67930;SDS011;63902;52.000;5.954;2022-11-04T03:40:23;5.28;;;4.78;;
67930;SDS011;63902;52.000;5.954;2022-11-04T03:41:26;7.35;;;5.18;;
67930;SDS011;63902;52.000;5.954;2022-11-04T03:42:31;5.60;;;4.65;;
67930;SDS011;63902;52.000;5.954;2022-11-04T03:43:36;7.82;;;4.68;;
67930;SDS011;63902;52.000;5.954;2022-11-04T03:44:40;5.30;;;4.80;;
67930;SDS011;63902;52.000;5.954;2022-11-04T03:45:41;4.43;;;4.03;;
67930;SDS011;63902;52.000;5.954;2022-11-04T03:46:44;5.00;;;4.50;;
67930;SDS011;63902;52.000;5.954;2022-11-04T03:47:44;9.05;;;5.20;;
67930;SDS011;63902;52.000;5.954;2022-11-04T03:48:44;5.45;;;4.65;;
67930;SDS011;63902;52.000;5.954;2022-11-04T03:49:45;5.43;;;4.88;;
67930;SDS011;63902;52.000;5.954;2022-11-04T03:50:47;5.15;;;4.65;;
67930;SDS011;63902;52.000;5.954;2022-11-04T03:51:48;5.22;;;4.72;;
67930;SDS011;63902;52.000;5.954;2022-11-04T03:52:49;8.65;;;5.00;;
67930;SDS011;63902;52.000;5.954;2022-11-04T03:53:50;7.13;;;4.85;;
67930;SDS011;63902;52.000;5.954;2022-11-04T03:54:51;6.47;;;4.47;;
67930;SDS011;63902;52.000;5.954;2022-11-04T03:55:56;4.53;;;4.10;;
67930;SDS011;63902;52.000;5.954;2022-11-04T03:57:16;6.55;;;4.35;;
67930;SDS011;63902;52.000;5.954;2022-11-04T03:58:28;5.50;;;4.85;;
67930;SDS011;63902;52.000;5.954;2022-11-04T03:59:49;4.88;;;4.35;;
67930;SDS011;63902;52.000;5.954;2022-11-04T04:01:06;5.45;;;4.40;;
67930;SDS011;63902;52.000;5.954;2022-11-04T04:02:24;5.22;;;4.45;;
67930;SDS011;63902;52.000;5.954;2022-11-04T04:03:34;5.82;;;4.55;;
67930;SDS011;63902;52.000;5.954;2022-11-04T04:04:42;5.18;;;3.83;;
67930;SDS011;63902;52.000;5.954;2022-11-04T04:05:49;5.93;;;4.22;;
67930;SDS011;63902;52.000;5.954;2022-11-04T04:06:53;8.10;;;4.63;;
67930;SDS011;63902;52.000;5.954;2022-11-04T04:08:00;5.40;;;4.45;;
67930;SDS011;63902;52.000;5.954;2022-11-04T04:09:11;7.03;;;5.20;;
67930;SDS011;63902;52.000;5.954;2022-11-04T04:10:22;5.18;;;4.28;;
67930;SDS011;63902;52.000;5.954;2022-11-04T04:11:28;8.57;;;4.35;;
67930;SDS011;63902;52.000;5.954;2022-11-04T04:12:35;6.03;;;4.70;;
67930;SDS011;63902;52.000;5.954;2022-11-04T04:13:41;5.40;;;4.50;;
67930;SDS011;63902;52.000;5.954;2022-11-04T04:14:48;4.50;;;3.67;;
67930;SDS011;63902;52.000;5.954;2022-11-04T04:15:52;6.13;;;4.28;;
67930;SDS011;63902;52.000;5.954;2022-11-04T04:16:54;4.85;;;4.10;;
67930;SDS011;63902;52.000;5.954;2022-11-04T04:17:59;5.75;;;4.65;;
67930;SDS011;63902;52.000;5.954;2022-11-04T04:19:04;5.75;;;3.92;;
67930;SDS011;63902;52.000;5.954;2022-11-04T04:20:12;5.63;;;4.05;;
67930;SDS011;63902;52.000;5.954;2022-11-04T04:21:18;6.97;;;4.53;;
67930;SDS011;63902;52.000;5.954;2022-11-04T04:22:21;5.28;;;4.40;;
67930;SDS011;63902;52.000;5.954;2022-11-04T04:23:25;5.88;;;4.57;;
67930;SDS011;63902;52.000;5.954;2022-11-04T04:24:29;5.65;;;4.30;;
67930;SDS011;63902;52.000;5.954;2022-11-04T04:25:34;4.40;;;4.00;;
67930;SDS011;63902;52.000;5.954;2022-11-04T04:26:34;7.10;;;4.00;;
67930;SDS011;63902;52.000;5.954;2022-11-04T04:27:38;6.78;;;4.00;;
67930;SDS011;63902;52.000;5.954;2022-11-04T04:28:40;6.15;;;4.00;;
67930;SDS011;63902;52.000;5.954;2022-11-04T04:29:42;5.15;;;3.90;;
67930;SDS011;63902;52.000;5.954;2022-11-04T04:30:45;5.90;;;4.20;;
67930;SDS011;63902;52.000;5.954;2022-11-04T04:31:46;5.32;;;4.05;;
67930;SDS011;63902;52.000;5.954;2022-11-04T04:32:49;6.68;;;3.53;;
67930;SDS011;63902;52.000;5.954;2022-11-04T04:33:53;4.22;;;3.45;;
67930;SDS011;63902;52.000;5.954;2022-11-04T04:34:54;6.10;;;3.83;;
67930;SDS011;63902;52.000;5.954;2022-11-04T04:35:55;5.28;;;3.60;;
67930;SDS011;63902;52.000;5.954;2022-11-04T04:36:58;5.32;;;3.38;;
67930;SDS011;63902;52.000;5.954;2022-11-04T04:38:02;5.68;;;3.28;;
67930;SDS011;63902;52.000;5.954;2022-11-04T04:39:05;6.25;;;3.20;;
67930;SDS011;63902;52.000;5.954;2022-11-04T04:40:09;4.15;;;3.30;;
67930;SDS011;63902;52.000;5.954;2022-11-04T04:41:15;5.32;;;3.05;;
67930;SDS011;63902;52.000;5.954;2022-11-04T04:42:18;3.83;;;2.72;;
67930;SDS011;63902;52.000;5.954;2022-11-04T04:43:19;5.63;;;2.75;;
67930;SDS011;63902;52.000;5.954;2022-11-04T04:44:21;3.53;;;2.70;;
67930;SDS011;63902;52.000;5.954;2022-11-04T04:45:24;5.75;;;2.45;;
67930;SDS011;63902;52.000;5.954;2022-11-04T04:46:30;5.85;;;2.80;;
67930;SDS011;63902;52.000;5.954;2022-11-04T04:47:33;5.40;;;2.70;;
67930;SDS011;63902;52.000;5.954;2022-11-04T04:48:38;4.22;;;2.50;;
67930;SDS011;63902;52.000;5.954;2022-11-04T04:49:49;5.22;;;2.80;;
67930;SDS011;63902;52.000;5.954;2022-11-04T04:50:50;2.63;;;2.10;;
67930;SDS011;63902;52.000;5.954;2022-11-04T04:51:53;2.65;;;1.77;;
67930;SDS011;63902;52.000;5.954;2022-11-04T04:52:53;3.15;;;2.53;;
67930;SDS011;63902;52.000;5.954;2022-11-04T04:53:57;5.00;;;2.45;;
67930;SDS011;63902;52.000;5.954;2022-11-04T04:54:57;2.83;;;2.03;;
67930;SDS011;63902;52.000;5.954;2022-11-04T04:55:58;4.25;;;2.67;;
67930;SDS011;63902;52.000;5.954;2022-11-04T04:56:58;7.53;;;2.55;;
67930;SDS011;63902;52.000;5.954;2022-11-04T04:57:59;4.05;;;2.28;;
67930;SDS011;63902;52.000;5.954;2022-11-04T04:58:59;4.57;;;2.00;;
67930;SDS011;63902;52.000;5.954;2022-11-04T05:00:00;4.75;;;2.25;;
67930;SDS011;63902;52.000;5.954;2022-11-04T05:01:00;5.32;;;2.05;;
67930;SDS011;63902;52.000;5.954;2022-11-04T05:02:02;3.08;;;2.20;;
67930;SDS011;63902;52.000;5.954;2022-11-04T05:03:02;4.43;;;2.30;;
67930;SDS011;63902;52.000;5.954;2022-11-04T05:04:03;2.83;;;2.22;;
67930;SDS011;63902;52.000;5.954;2022-11-04T05:05:05;4.00;;;2.30;;
67930;SDS011;63902;52.000;5.954;2022-11-04T05:06:06;3.25;;;1.98;;
67930;SDS011;63902;52.000;5.954;2022-11-04T05:07:07;3.20;;;2.28;;
67930;SDS011;63902;52.000;5.954;2022-11-04T05:08:07;3.50;;;2.10;;
67930;SDS011;63902;52.000;5.954;2022-11-04T05:09:08;4.70;;;2.30;;
67930;SDS011;63902;52.000;5.954;2022-11-04T05:10:09;3.70;;;2.05;;
67930;SDS011;63902;52.000;5.954;2022-11-04T05:11:11;6.80;;;2.65;;
67930;SDS011;63902;52.000;5.954;2022-11-04T05:12:12;5.88;;;1.85;;
67930;SDS011;63902;52.000;5.954;2022-11-04T05:13:12;3.40;;;2.25;;
67930;SDS011;63902;52.000;5.954;2022-11-04T05:14:12;4.75;;;2.45;;
67930;SDS011;63902;52.000;5.954;2022-11-04T05:15:13;6.22;;;2.60;;
67930;SDS011;63902;52.000;5.954;2022-11-04T05:16:14;3.05;;;2.10;;
67930;SDS011;63902;52.000;5.954;2022-11-04T05:17:14;2.65;;;1.92;;
67930;SDS011;63902;52.000;5.954;2022-11-04T05:18:15;4.03;;;2.13;;
67930;SDS011;63902;52.000;5.954;2022-11-04T05:19:15;3.85;;;2.50;;
67930;SDS011;63902;52.000;5.954;2022-11-04T05:20:17;2.85;;;2.10;;
67930;SDS011;63902;52.000;5.954;2022-11-04T05:21:17;4.28;;;2.30;;
67930;SDS011;63902;52.000;5.954;2022-11-04T05:22:18;3.38;;;2.10;;
67930;SDS011;63902;52.000;5.954;2022-11-04T05:23:18;4.07;;;2.20;;
67930;SDS011;63902;52.000;5.954;2022-11-04T05:24:19;2.83;;;2.13;;
67930;SDS011;63902;52.000;5.954;2022-11-04T05:25:19;4.18;;;2.10;;
67930;SDS011;63902;52.000;5.954;2022-11-04T05:26:20;3.63;;;1.80;;
67930;SDS011;63902;52.000;5.954;2022-11-04T05:27:20;5.45;;;2.08;;
67930;SDS011;63902;52.000;5.954;2022-11-04T05:28:21;2.47;;;1.73;;
67930;SDS011;63902;52.000;5.954;2022-11-04T05:29:21;2.60;;;1.90;;
67930;SDS011;63902;52.000;5.954;2022-11-04T05:30:22;3.90;;;1.90;;
67930;SDS011;63902;52.000;5.954;2022-11-04T05:31:22;6.85;;;1.88;;
67930;SDS011;63902;52.000;5.954;2022-11-04T05:32:23;2.60;;;1.65;;
67930;SDS011;63902;52.000;5.954;2022-11-04T05:33:23;4.05;;;2.08;;
67930;SDS011;63902;52.000;5.954;2022-11-04T05:34:24;3.47;;;2.22;;
67930;SDS011;63902;52.000;5.954;2022-11-04T05:35:25;2.42;;;1.67;;
67930;SDS011;63902;52.000;5.954;2022-11-04T05:36:26;2.13;;;1.83;;
67930;SDS011;63902;52.000;5.954;2022-11-04T05:37:26;4.13;;;2.08;;
67930;SDS011;63902;52.000;5.954;2022-11-04T05:38:27;2.92;;;2.17;;
67930;SDS011;63902;52.000;5.954;2022-11-04T05:39:27;3.83;;;1.83;;
67930;SDS011;63902;52.000;5.954;2022-11-04T05:40:28;4.43;;;2.00;;
67930;SDS011;63902;52.000;5.954;2022-11-04T05:41:28;3.00;;;2.15;;
67930;SDS011;63902;52.000;5.954;2022-11-04T05:42:29;4.20;;;2.08;;
67930;SDS011;63902;52.000;5.954;2022-11-04T05:43:30;3.38;;;1.90;;
67930;SDS011;63902;52.000;5.954;2022-11-04T05:44:31;2.60;;;1.92;;
67930;SDS011;63902;52.000;5.954;2022-11-04T05:45:31;3.28;;;1.90;;
67930;SDS011;63902;52.000;5.954;2022-11-04T05:46:31;5.20;;;2.20;;
67930;SDS011;63902;52.000;5.954;2022-11-04T05:47:32;5.20;;;1.83;;
67930;SDS011;63902;52.000;5.954;2022-11-04T05:48:32;3.47;;;2.05;;
67930;SDS011;63902;52.000;5.954;2022-11-04T05:49:33;2.85;;;2.00;;
67930;SDS011;63902;52.000;5.954;2022-11-04T05:50:35;4.18;;;2.08;;
67930;SDS011;63902;52.000;5.954;2022-11-04T05:51:35;3.47;;;2.20;;
67930;SDS011;63902;52.000;5.954;2022-11-04T05:52:36;2.67;;;2.00;;
67930;SDS011;63902;52.000;5.954;2022-11-04T05:53:37;3.22;;;2.08;;
67930;SDS011;63902;52.000;5.954;2022-11-04T05:54:40;5.03;;;2.50;;
67930;SDS011;63902;52.000;5.954;2022-11-04T05:55:40;3.13;;;1.83;;
67930;SDS011;63902;52.000;5.954;2022-11-04T05:56:40;2.75;;;1.90;;
67930;SDS011;63902;52.000;5.954;2022-11-04T05:57:41;4.68;;;2.30;;
67930;SDS011;63902;52.000;5.954;2022-11-04T05:58:41;3.72;;;1.95;;
67930;SDS011;63902;52.000;5.954;2022-11-04T05:59:42;3.95;;;1.67;;
67930;SDS011;63902;52.000;5.954;2022-11-04T06:00:44;4.65;;;2.08;;
67930;SDS011;63902;52.000;5.954;2022-11-04T06:01:44;2.97;;;2.10;;
67930;SDS011;63902;52.000;5.954;2022-11-04T06:02:45;4.30;;;2.00;;
67930;SDS011;63902;52.000;5.954;2022-11-04T06:03:45;2.80;;;1.92;;
67930;SDS011;63902;52.000;5.954;2022-11-04T06:04:46;3.67;;;1.90;;
67930;SDS011;63902;52.000;5.954;2022-11-04T06:05:47;3.95;;;1.67;;
67930;SDS011;63902;52.000;5.954;2022-11-04T06:06:48;2.97;;;1.75;;
67930;SDS011;63902;52.000;5.954;2022-11-04T06:07:48;3.80;;;1.70;;
67930;SDS011;63902;52.000;5.954;2022-11-04T06:08:49;3.95;;;1.70;;
67930;SDS011;63902;52.000;5.954;2022-11-04T06:09:51;3.00;;;1.65;;
67930;SDS011;63902;52.000;5.954;2022-11-04T06:10:51;3.15;;;1.70;;
67930;SDS011;63902;52.000;5.954;2022-11-04T06:11:52;2.53;;;1.63;;
67930;SDS011;63902;52.000;5.954;2022-11-04T06:12:52;2.47;;;1.63;;
67930;SDS011;63902;52.000;5.954;2022-11-04T06:13:53;4.43;;;1.67;;
67930;SDS011;63902;52.000;5.954;2022-11-04T06:14:54;2.60;;;1.70;;
67930;SDS011;63902;52.000;5.954;2022-11-04T06:15:54;3.67;;;2.10;;
67930;SDS011;63902;52.000;5.954;2022-11-04T06:16:55;3.20;;;1.60;;
67930;SDS011;63902;52.000;5.954;2022-11-04T06:17:55;2.90;;;1.80;;
67930;SDS011;63902;52.000;5.954;2022-11-04T06:18:56;7.40;;;1.95;;
67930;SDS011;63902;52.000;5.954;2022-11-04T06:19:56;2.55;;;1.45;;
67930;SDS011;63902;52.000;5.954;2022-11-04T06:21:08;2.63;;;1.77;;
67930;SDS011;63902;52.000;5.954;2022-11-04T06:22:19;4.80;;;1.75;;
67930;SDS011;63902;52.000;5.954;2022-11-04T06:23:19;3.45;;;1.70;;
67930;SDS011;63902;52.000;5.954;2022-11-04T06:24:19;5.32;;;1.52;;
67930;SDS011;63902;52.000;5.954;2022-11-04T06:25:20;2.92;;;1.70;;